createdAt,value
2023-03-17T00:01:51.016Z,4.73
2023-03-17T00:04:40.549Z,4.20
2023-03-17T00:07:28.467Z,5.63
2023-03-17T00:10:18.357Z,5.83
2023-03-17T00:13:07.367Z,4.00
2023-03-17T00:15:59.399Z,6.77
2023-03-17T00:18:48.259Z,5.17
2023-03-17T00:21:38.885Z,5.03
2023-03-17T00:24:27.333Z,4.70
2023-03-17T00:27:15.430Z,5.27
2023-03-17T00:30:03.346Z,5.57
2023-03-17T00:32:53.456Z,4.87
2023-03-17T00:35:41.773Z,4.03
2023-03-17T00:38:31.390Z,5.07
2023-03-17T00:41:19.454Z,6.00
2023-03-17T00:44:07.441Z,6.10
2023-03-17T00:46:56.426Z,4.80
2023-03-17T00:49:44.883Z,6.33
2023-03-17T00:52:33.313Z,5.50
2023-03-17T00:55:23.542Z,5.40
2023-03-17T00:58:15.612Z,4.33
2023-03-17T01:01:03.538Z,4.83
2023-03-17T01:03:51.470Z,4.33
2023-03-17T01:06:39.511Z,5.70
2023-03-17T01:09:28.535Z,5.03
2023-03-17T01:12:18.304Z,7.03
2023-03-17T01:15:07.034Z,4.40
2023-03-17T01:17:54.937Z,4.53
2023-03-17T01:20:43.785Z,4.77
2023-03-17T01:23:31.793Z,5.30
2023-03-17T01:26:19.663Z,5.13
2023-03-17T01:29:09.055Z,5.13
2023-03-17T01:31:56.978Z,5.07
2023-03-17T01:34:45.637Z,4.63
2023-03-17T01:37:33.724Z,6.50
2023-03-17T01:40:23.777Z,6.30
2023-03-17T01:43:20.072Z,5.30
2023-03-17T01:46:29.794Z,5.60
2023-03-17T01:49:23.546Z,5.17
2023-03-17T01:52:15.131Z,6.20
2023-03-17T01:55:07.322Z,4.80
2023-03-17T01:57:56.511Z,6.37
2023-03-17T02:00:46.434Z,6.10
2023-03-17T02:03:35.988Z,4.70
2023-03-17T02:06:24.276Z,6.57
2023-03-17T02:09:12.387Z,5.70
2023-03-17T02:12:01.827Z,5.07
2023-03-17T02:14:50.389Z,5.73
2023-03-17T02:17:39.205Z,6.70
2023-03-17T02:21:03.844Z,4.80
2023-03-17T02:23:53.144Z,7.47
2023-03-17T02:26:41.338Z,5.90
2023-03-17T02:29:29.234Z,6.27
2023-03-17T02:32:18.697Z,5.10
2023-03-17T02:35:08.582Z,6.97
2023-03-17T02:37:56.501Z,6.27
2023-03-17T02:40:45.806Z,5.90
2023-03-17T02:43:33.802Z,6.60
2023-03-17T02:46:21.864Z,7.00
2023-03-17T02:49:10.187Z,6.63
2023-03-17T02:51:58.102Z,5.97
2023-03-17T02:54:46.024Z,5.47
2023-03-17T02:57:35.383Z,5.70
2023-03-17T03:00:24.170Z,6.73
2023-03-17T03:03:12.083Z,6.07
2023-03-17T03:06:02.701Z,5.33
2023-03-17T03:08:51.121Z,5.20
2023-03-17T03:11:39.081Z,5.57
2023-03-17T03:14:28.398Z,5.30
2023-03-17T03:17:16.454Z,5.57
2023-03-17T03:20:04.899Z,5.63
2023-03-17T03:22:52.789Z,5.23
2023-03-17T03:25:40.821Z,4.90
2023-03-17T03:28:29.040Z,5.83
2023-03-17T03:31:18.549Z,5.50
2023-03-17T03:34:06.586Z,4.67
2023-03-17T03:36:54.750Z,5.57
2023-03-17T03:39:42.680Z,5.80
2023-03-17T03:42:30.669Z,8.03
2023-03-17T03:45:18.784Z,5.73
2023-03-17T03:48:08.575Z,4.87
2023-03-17T03:50:57.995Z,5.53
2023-03-17T03:53:48.231Z,7.67
2023-03-17T03:56:36.351Z,7.00
2023-03-17T03:59:24.264Z,7.90
2023-03-17T04:02:12.351Z,5.63
2023-03-17T04:05:01.900Z,6.67
2023-03-17T04:07:49.821Z,5.60
2023-03-17T04:10:37.776Z,5.40
2023-03-17T04:13:25.735Z,6.63
2023-03-17T04:16:13.648Z,7.13
2023-03-17T04:19:01.646Z,6.17
2023-03-17T04:21:53.631Z,6.60
2023-03-17T04:24:42.506Z,6.23
2023-03-17T04:27:30.568Z,6.97
2023-03-17T04:30:18.972Z,6.97
2023-03-17T04:33:07.181Z,8.43
2023-03-17T04:35:55.183Z,6.97
2023-03-17T04:38:44.511Z,6.73
2023-03-17T04:41:32.440Z,6.23
2023-03-17T04:44:20.499Z,6.50
2023-03-17T04:47:08.631Z,6.70
2023-03-17T04:49:56.703Z,7.07
2023-03-17T04:52:44.687Z,6.83
2023-03-17T04:55:33.954Z,6.73
2023-03-17T04:58:30.480Z,6.03
2023-03-17T05:01:19.145Z,5.67
2023-03-17T05:04:08.062Z,6.87
2023-03-17T05:06:58.147Z,6.90
2023-03-17T05:09:47.455Z,7.90
2023-03-17T05:12:36.991Z,6.87
2023-03-17T05:15:25.007Z,7.27
2023-03-17T05:18:12.853Z,6.17
2023-03-17T05:21:01.038Z,7.70
2023-03-17T05:23:48.962Z,5.63
2023-03-17T05:26:37.335Z,7.53
2023-03-17T05:29:26.700Z,7.33
2023-03-17T05:32:14.679Z,8.70
2023-03-17T05:35:03.573Z,8.40
2023-03-17T05:37:51.617Z,7.97
2023-03-17T05:40:39.917Z,7.10
2023-03-17T05:43:27.803Z,7.20
2023-03-17T05:46:19.785Z,5.97
2023-03-17T05:49:08.689Z,6.90
2023-03-17T05:51:56.860Z,7.43
2023-03-17T05:54:47.959Z,6.93
2023-03-17T05:57:36.301Z,6.33
2023-03-17T06:00:24.846Z,7.43
2023-03-17T06:03:14.409Z,7.00
2023-03-17T06:06:02.660Z,5.43
2023-03-17T06:08:50.571Z,6.17
2023-03-17T06:11:38.549Z,8.60
2023-03-17T06:14:27.250Z,6.70
2023-03-17T06:17:15.252Z,7.13
2023-03-17T06:20:05.462Z,6.23
2023-03-17T06:23:03.751Z,6.77
2023-03-17T06:25:53.497Z,5.93
2023-03-17T06:28:41.763Z,7.03
2023-03-17T06:31:29.677Z,6.57
2023-03-17T06:34:17.898Z,5.50
2023-03-17T06:37:07.136Z,7.77
2023-03-17T06:39:55.599Z,6.47
2023-03-17T06:42:43.500Z,6.63
2023-03-17T06:45:33.309Z,6.53
2023-03-17T06:48:26.327Z,6.23
2023-03-17T06:51:14.573Z,5.67
2023-03-17T06:54:03.909Z,6.13
2023-03-17T06:56:51.892Z,6.10
2023-03-17T06:59:40.397Z,8.33
2023-03-17T07:02:28.366Z,6.37
2023-03-17T07:05:16.554Z,8.10
2023-03-17T07:08:04.560Z,6.87
2023-03-17T07:10:55.876Z,6.97
2023-03-17T07:13:45.263Z,5.17
2023-03-17T07:16:33.980Z,7.13
2023-03-17T07:19:22.371Z,5.73
2023-03-17T07:22:12.404Z,6.37
2023-03-17T07:25:00.453Z,7.40
2023-03-17T07:27:49.952Z,5.73
2023-03-17T07:30:38.320Z,6.37
2023-03-17T07:33:26.345Z,6.73
2023-03-17T07:36:15.741Z,6.77
2023-03-17T07:39:04.487Z,6.23
2023-03-17T07:41:55.175Z,7.50
2023-03-17T07:44:45.514Z,7.07
2023-03-17T07:47:33.404Z,6.20
2023-03-17T07:50:21.806Z,5.77
2023-03-17T07:53:10.162Z,6.43
2023-03-17T07:55:58.069Z,6.83
2023-03-17T07:58:46.017Z,7.57
2023-03-17T08:01:36.018Z,8.37
2023-03-17T08:04:24.235Z,5.43
2023-03-17T08:07:12.816Z,6.40
2023-03-17T08:10:00.915Z,5.83
2023-03-17T08:12:51.802Z,7.10
2023-03-17T08:15:39.708Z,6.73
2023-03-17T08:18:29.038Z,7.07
2023-03-17T08:21:17.623Z,5.87
2023-03-17T08:24:05.860Z,5.43
2023-03-17T08:26:54.124Z,6.67
2023-03-17T08:29:42.068Z,6.03
2023-03-17T08:32:30.020Z,6.30
2023-03-17T08:35:19.644Z,5.40
2023-03-17T08:38:07.807Z,4.93
2023-03-17T08:40:55.758Z,5.43
2023-03-17T08:43:44.715Z,6.13
2023-03-17T08:46:34.026Z,5.93
2023-03-17T08:49:22.018Z,5.87
2023-03-17T08:52:11.276Z,4.97
2023-03-17T08:54:59.553Z,5.67
2023-03-17T08:57:48.668Z,5.37
2023-03-17T09:00:36.570Z,5.80
2023-03-17T09:03:24.595Z,7.20
2023-03-17T09:06:13.605Z,4.77
2023-03-17T09:09:02.881Z,5.00
2023-03-17T09:11:50.840Z,5.70
2023-03-17T09:14:43.808Z,5.53
2023-03-17T09:17:32.332Z,5.80
2023-03-17T09:20:20.503Z,5.50
2023-03-17T09:23:09.432Z,3.90
2023-03-17T09:25:58.702Z,4.57
2023-03-17T09:28:46.624Z,4.93
2023-03-17T09:31:36.445Z,6.30
2023-03-17T09:34:25.124Z,5.67
2023-03-17T09:37:13.632Z,4.77
2023-03-17T09:40:02.217Z,4.57
2023-03-17T09:43:02.417Z,5.17
2023-03-17T09:45:50.566Z,4.70
2023-03-17T09:48:51.323Z,5.40
2023-03-17T09:51:39.781Z,4.20
2023-03-17T09:54:30.703Z,4.07
2023-03-17T09:57:23.885Z,4.03
2023-03-17T10:00:19.055Z,4.57
2023-03-17T10:03:11.396Z,4.77
2023-03-17T10:06:13.461Z,4.93
2023-03-17T10:09:08.328Z,4.37
2023-03-17T10:12:04.626Z,5.37
2023-03-17T10:14:59.470Z,5.60
2023-03-17T10:17:49.333Z,3.60
2023-03-17T10:20:43.612Z,3.23
2023-03-17T10:23:33.732Z,5.37
2023-03-17T10:26:29.239Z,4.87
2023-03-17T10:29:21.372Z,4.70
2023-03-17T10:32:12.337Z,4.73
2023-03-17T10:35:02.500Z,5.03
2023-03-17T10:37:52.005Z,3.57
2023-03-17T10:40:41.848Z,3.30
2023-03-17T10:43:31.650Z,4.23
2023-03-17T10:46:22.137Z,3.37
2023-03-17T10:49:18.720Z,5.57
2023-03-17T10:52:18.491Z,3.43
2023-03-17T10:55:09.034Z,6.53
2023-03-17T10:58:03.881Z,3.87
2023-03-17T11:00:57.248Z,3.20
2023-03-17T11:03:45.408Z,4.10
2023-03-17T11:06:39.185Z,4.33
2023-03-17T11:09:34.963Z,4.80
2023-03-17T11:12:27.137Z,3.23
2023-03-17T11:15:17.907Z,4.90
2023-03-17T11:18:13.747Z,3.20
2023-03-17T11:21:06.764Z,4.77
2023-03-17T11:24:00.047Z,4.67
2023-03-17T11:26:58.951Z,4.57
2023-03-17T11:30:00.912Z,4.40
2023-03-17T11:32:56.410Z,2.90
2023-03-17T11:35:51.423Z,4.60
2023-03-17T11:38:47.687Z,4.33
2023-03-17T11:42:02.683Z,3.70
2023-03-17T11:45:05.597Z,4.67
2023-03-17T11:48:11.745Z,3.47
2023-03-17T11:51:04.968Z,5.50
2023-03-17T11:54:04.039Z,4.30
2023-03-17T11:56:54.505Z,3.80
2023-03-17T11:59:48.606Z,4.33
2023-03-17T12:02:43.685Z,4.57
2023-03-17T12:05:32.572Z,4.20
2023-03-17T12:08:29.839Z,5.70
2023-03-17T12:11:23.090Z,3.93
2023-03-17T12:14:25.052Z,4.07
2023-03-17T12:17:19.911Z,4.50
2023-03-17T12:20:16.450Z,3.53
2023-03-17T12:23:11.308Z,3.30
2023-03-17T12:26:05.126Z,3.93
2023-03-17T12:28:59.784Z,3.77
2023-03-17T12:31:53.715Z,4.33
2023-03-17T12:34:46.590Z,4.60
2023-03-17T12:37:36.788Z,3.30
2023-03-17T12:40:33.588Z,3.77
2023-03-17T12:43:37.170Z,3.93
2023-03-17T12:46:49.414Z,3.87
2023-03-17T12:50:02.522Z,5.30
2023-03-17T12:53:17.071Z,4.80
2023-03-17T12:56:13.171Z,3.10
2023-03-17T12:59:05.308Z,3.90
2023-03-17T13:01:58.772Z,3.50
2023-03-17T13:04:57.869Z,3.07
2023-03-17T13:07:52.557Z,4.23
2023-03-17T13:10:44.079Z,4.53
2023-03-17T13:13:45.172Z,2.87
2023-03-17T13:16:35.087Z,3.73
2023-03-17T13:19:24.771Z,3.70
2023-03-17T13:22:34.191Z,4.77
2023-03-17T13:25:32.373Z,3.40
2023-03-17T13:28:27.750Z,2.83
2023-03-17T13:31:33.392Z,3.17
2023-03-17T13:34:22.284Z,4.07
2023-03-17T13:37:23.694Z,3.80
2023-03-17T13:40:19.178Z,4.10
2023-03-17T13:43:17.028Z,2.80
2023-03-17T13:46:27.529Z,7.27
2023-03-17T13:49:30.003Z,4.40
2023-03-17T13:52:24.742Z,4.30
2023-03-17T13:55:36.447Z,3.60
2023-03-17T13:58:26.510Z,2.40
2023-03-17T14:01:15.146Z,4.50
2023-03-17T14:04:09.973Z,3.03
2023-03-17T14:07:06.894Z,4.40
2023-03-17T14:09:59.939Z,2.53
2023-03-17T14:12:54.171Z,3.83
2023-03-17T14:15:48.094Z,4.03
2023-03-17T14:18:39.040Z,3.40
2023-03-17T14:21:33.507Z,2.73
2023-03-17T14:24:26.411Z,4.50
2023-03-17T14:27:15.869Z,3.00
2023-03-17T14:30:08.871Z,2.73
2023-03-17T14:33:01.653Z,5.90
2023-03-17T14:35:52.554Z,3.73
2023-03-17T14:38:48.703Z,4.50
2023-03-17T14:41:36.717Z,4.10
2023-03-17T14:44:24.623Z,4.17
2023-03-17T14:47:19.629Z,2.60
2023-03-17T14:50:17.551Z,4.03
2023-03-17T14:53:05.693Z,4.27
2023-03-17T14:55:55.052Z,3.50
2023-03-17T14:58:45.028Z,4.77
2023-03-17T15:01:37.564Z,3.10
2023-03-17T15:04:28.597Z,4.53
2023-03-17T15:07:33.462Z,4.60
2023-03-17T15:10:24.477Z,3.97
2023-03-17T15:13:13.977Z,8.43
2023-03-17T15:16:07.508Z,4.80
2023-03-17T15:19:04.158Z,4.90
2023-03-17T15:21:52.039Z,4.83
2023-03-17T15:24:44.099Z,3.63
2023-03-17T15:27:32.809Z,4.23
2023-03-17T15:30:22.208Z,4.60
2023-03-17T15:33:23.486Z,3.50
2023-03-17T15:36:31.413Z,4.13
2023-03-17T15:39:19.996Z,5.10
2023-03-17T15:42:08.376Z,3.23
2023-03-17T15:44:56.362Z,5.77
2023-03-17T15:47:47.334Z,4.23
2023-03-17T15:50:36.565Z,3.63
2023-03-17T15:53:24.493Z,5.93
2023-03-17T15:56:18.848Z,3.83
2023-03-17T15:59:06.892Z,4.73
2023-03-17T16:01:55.017Z,4.73
2023-03-17T16:04:44.362Z,4.13
2023-03-17T16:07:32.369Z,5.13
2023-03-17T16:10:23.091Z,2.40
2023-03-17T16:13:11.061Z,5.70
2023-03-17T16:16:01.216Z,4.30
2023-03-17T16:18:51.677Z,4.70
2023-03-17T16:21:41.402Z,5.07
2023-03-17T16:24:29.896Z,2.67
2023-03-17T16:27:17.810Z,3.30
2023-03-17T16:30:06.511Z,4.40
2023-03-17T16:32:56.137Z,3.50
2023-03-17T16:35:44.581Z,4.77
2023-03-17T16:38:35.156Z,5.73
2023-03-17T16:41:25.510Z,6.30
2023-03-17T16:44:14.881Z,4.17
2023-03-17T16:47:03.043Z,2.90
2023-03-17T16:49:51.043Z,3.30
2023-03-17T16:52:39.009Z,3.80
2023-03-17T16:55:30.098Z,3.23
2023-03-17T16:58:20.566Z,2.43
2023-03-17T17:01:14.839Z,2.77
2023-03-17T17:04:02.858Z,3.00
2023-03-17T17:06:51.057Z,3.27
2023-03-17T17:09:39.303Z,3.10
2023-03-17T17:12:28.555Z,4.93
2023-03-17T17:15:18.705Z,4.70
2023-03-17T17:18:09.459Z,3.93
2023-03-17T17:20:57.675Z,3.43
2023-03-17T17:23:46.039Z,4.93
2023-03-17T17:26:33.965Z,3.90
2023-03-17T17:29:23.262Z,2.97
2023-03-17T17:32:12.519Z,4.10
2023-03-17T17:35:00.467Z,6.23
2023-03-17T17:37:48.416Z,5.60
2023-03-17T17:40:37.393Z,5.07
2023-03-17T17:43:25.740Z,5.23
2023-03-17T17:46:18.107Z,5.50
2023-03-17T17:49:06.087Z,4.20
2023-03-17T17:51:53.968Z,3.07
2023-03-17T17:54:41.844Z,2.67
2023-03-17T17:57:30.254Z,3.53
2023-03-17T18:00:19.261Z,3.53
2023-03-17T18:03:08.694Z,3.47
2023-03-17T18:05:59.002Z,4.17
2023-03-17T18:08:47.113Z,4.57
2023-03-17T18:11:38.421Z,3.37
2023-03-17T18:14:26.544Z,3.83
2023-03-17T18:17:21.431Z,5.43
2023-03-17T18:20:12.908Z,3.63
2023-03-17T18:23:00.812Z,3.13
2023-03-17T18:25:49.333Z,3.60
2023-03-17T18:28:37.203Z,3.37
2023-03-17T18:31:29.170Z,4.07
2023-03-17T18:34:20.150Z,4.33
2023-03-17T18:37:09.547Z,4.13
2023-03-17T18:40:12.568Z,2.57
2023-03-17T18:43:02.754Z,5.60
2023-03-17T18:45:50.986Z,3.83
2023-03-17T18:48:39.190Z,3.43
2023-03-17T18:51:27.032Z,3.37
2023-03-17T18:54:16.249Z,3.13
2023-03-17T18:57:04.293Z,3.57
2023-03-17T18:59:52.192Z,3.03
2023-03-17T19:02:40.312Z,4.23
2023-03-17T19:05:28.484Z,5.80
2023-03-17T19:08:17.927Z,4.50
2023-03-17T19:11:08.836Z,3.97
2023-03-17T19:13:58.233Z,3.03
2023-03-17T19:16:46.277Z,5.53
2023-03-17T19:19:35.332Z,3.47
2023-03-17T19:22:23.740Z,3.33
2023-03-17T19:25:12.213Z,4.73
2023-03-17T19:28:03.228Z,4.10
2023-03-17T19:30:51.659Z,4.07
2023-03-17T19:33:40.041Z,4.53
2023-03-17T19:36:27.944Z,4.70
2023-03-17T19:39:16.602Z,4.77
2023-03-17T19:42:04.597Z,3.90
2023-03-17T19:44:53.877Z,4.47
2023-03-17T19:47:42.318Z,3.77
2023-03-17T19:50:32.843Z,4.20
2023-03-17T19:53:20.892Z,3.93
2023-03-17T19:56:08.857Z,3.58
2023-03-17T19:58:56.934Z,3.70
2023-03-17T20:01:46.272Z,4.17
2023-03-17T20:04:34.398Z,3.20
2023-03-17T20:07:22.445Z,4.90
2023-03-17T20:10:11.986Z,4.00
2023-03-17T20:12:59.918Z,3.97
2023-03-17T20:15:48.407Z,2.70
2023-03-17T20:18:37.894Z,4.60
2023-03-17T20:21:25.823Z,3.60
2023-03-17T20:24:14.736Z,3.73
2023-03-17T20:27:03.490Z,5.70
2023-03-17T20:29:51.661Z,4.30
2023-03-17T20:32:40.025Z,3.07
2023-03-17T20:35:29.418Z,4.17
2023-03-17T20:38:17.626Z,4.90
2023-03-17T20:41:07.391Z,3.60
2023-03-17T20:43:55.293Z,3.57
2023-03-17T20:46:43.853Z,4.23
2023-03-17T20:49:31.981Z,3.23
2023-03-17T20:52:22.357Z,3.63
2023-03-17T20:55:13.902Z,3.83
2023-03-17T20:58:02.182Z,4.87
2023-03-17T21:00:50.449Z,6.37
2023-03-17T21:03:38.933Z,3.33
2023-03-17T21:06:28.525Z,3.73
2023-03-17T21:09:17.806Z,4.00
2023-03-17T21:12:06.114Z,3.20
2023-03-17T21:14:54.098Z,6.00
2023-03-17T21:17:42.468Z,3.97
2023-03-17T21:20:30.689Z,3.93
2023-03-17T21:23:18.714Z,4.40
2023-03-17T21:26:09.082Z,4.67
2023-03-17T21:28:57.489Z,3.73
2023-03-17T21:31:45.520Z,4.07
2023-03-17T21:34:33.512Z,4.93
2023-03-17T21:37:21.488Z,4.63
2023-03-17T21:40:12.578Z,3.93
2023-03-17T21:43:01.847Z,3.50
2023-03-17T21:45:49.857Z,5.17
2023-03-17T21:48:37.847Z,3.33
2023-03-17T21:51:26.275Z,3.23
2023-03-17T21:54:15.334Z,3.60
2023-03-17T21:57:03.253Z,4.63
2023-03-17T21:59:52.567Z,5.43
2023-03-17T22:02:41.724Z,4.73
2023-03-17T22:05:29.722Z,4.63
2023-03-17T22:08:18.259Z,5.27
2023-03-17T22:11:09.962Z,3.43
2023-03-17T22:13:58.410Z,3.60
2023-03-17T22:16:48.313Z,4.03
2023-03-17T22:19:36.333Z,4.10
2023-03-17T22:22:24.678Z,3.57
2023-03-17T22:25:12.628Z,4.27
2023-03-17T22:28:00.490Z,4.37
2023-03-17T22:30:49.073Z,3.43
2023-03-17T22:33:38.652Z,3.63
2023-03-17T22:36:27.153Z,3.83
2023-03-17T22:39:15.083Z,3.80
2023-03-17T22:42:03.106Z,3.80
2023-03-17T22:44:51.018Z,5.13
2023-03-17T22:47:38.858Z,3.93
2023-03-17T22:50:28.081Z,4.23
2023-03-17T22:53:15.976Z,7.10
2023-03-17T22:56:04.921Z,6.90
2023-03-17T22:58:53.579Z,5.00
2023-03-17T23:01:41.555Z,5.40
2023-03-17T23:04:29.550Z,5.00
2023-03-17T23:07:19.173Z,4.33
2023-03-17T23:10:10.828Z,4.33
2023-03-17T23:12:58.866Z,4.00
2023-03-17T23:15:47.350Z,6.23
2023-03-17T23:18:35.846Z,3.63
2023-03-17T23:21:27.691Z,5.57
2023-03-17T23:24:17.254Z,4.13
2023-03-17T23:27:06.113Z,4.27
2023-03-17T23:29:54.118Z,6.60
2023-03-17T23:32:42.830Z,5.23
2023-03-17T23:35:30.961Z,4.30
2023-03-17T23:38:19.344Z,4.37
2023-03-17T23:41:08.587Z,4.50
2023-03-17T23:43:56.685Z,2.90
2023-03-17T23:46:45.229Z,3.87
2023-03-17T23:49:33.103Z,5.77
2023-03-17T23:52:21.860Z,5.13
2023-03-17T23:55:11.822Z,4.23
2023-03-17T23:58:01.397Z,4.90
